KCTY

Cross City Airport

Cross City, Florida, USA
METAR KCTY 232215Z AUTO 21007KT 10SM SCT080 28/15 A3031 RMK AO2 T02770150
Observed Flight Rules
Feb-23 @ 22:15 UTC (16 minutes ago) Visual Flight Rules
Wind Visibility Clouds
210° at 7 knots 10 miles
  • Scattered at 8,000' AGL
Temperatures Readings
Current 28°C / 82°F
Dewpoint 15°C / 59°F
Humidity 45%
Altimeter 30.31" Hg
Pressure 1026 hPa
Elevation 13
METAR KCTY 232215Z AUTO 21007KT 10SM SCT080 28/15 A3031 RMK AO2 T02770150
Observed Flight Rules
Feb-23 @ 22:15 UTC
(16 minutes ago)
VFR
Wind Visibility
210° at 7 knots 10 miles
Clouds
  • Scattered at 8,000' AGL
Temperature Dewpoint
28°C / 82°F 15°C / 59°F
Humidity Altimeter Pressure
45% 30.31" Hg 1026 hPa